createdAt,value
2023-04-26T00:00:00.918Z,10.65
2023-04-26T00:02:52.226Z,10.61
2023-04-26T00:05:44.831Z,10.68
2023-04-26T00:08:37.056Z,10.81
2023-04-26T00:11:29.197Z,10.66
2023-04-26T00:14:21.492Z,10.55
2023-04-26T00:17:13.013Z,10.57
2023-04-26T00:20:06.021Z,10.62
2023-04-26T00:22:57.969Z,10.60
2023-04-26T00:25:50.428Z,10.42
2023-04-26T00:28:42.113Z,10.31
2023-04-26T00:31:34.125Z,10.26
2023-04-26T00:34:32.454Z,10.43
2023-04-26T00:37:24.441Z,10.26
2023-04-26T00:40:16.102Z,10.25
2023-04-26T00:43:08.645Z,10.35
2023-04-26T00:46:00.779Z,10.15
2023-04-26T00:48:52.870Z,10.45
2023-04-26T00:51:45.612Z,10.30
2023-04-26T00:54:37.419Z,10.23
2023-04-26T00:57:29.221Z,10.06
2023-04-26T01:00:21.157Z,10.03
2023-04-26T01:03:13.628Z,9.99
2023-04-26T01:06:05.258Z,9.92
2023-04-26T01:08:59.293Z,9.82
2023-04-26T01:11:52.537Z,9.96
2023-04-26T01:14:45.734Z,9.93
2023-04-26T01:17:13.239Z,9.93
2023-04-26T01:19:50.766Z,9.89
2023-04-26T01:22:18.689Z,9.85
2023-04-26T01:24:49.975Z,9.84
2023-04-26T01:27:17.673Z,9.82
2023-04-26T01:29:44.920Z,9.90
2023-04-26T01:32:12.145Z,9.79
2023-04-26T01:34:39.334Z,9.89
2023-04-26T01:37:06.448Z,9.79
2023-04-26T01:39:34.176Z,9.81
2023-04-26T01:42:01.320Z,9.96
2023-04-26T01:44:28.663Z,9.87
2023-04-26T01:46:55.960Z,9.90
2023-04-26T01:49:23.350Z,9.80
2023-04-26T01:51:50.692Z,9.82
2023-04-26T01:54:18.036Z,9.77
2023-04-26T01:56:45.158Z,9.91
2023-04-26T01:59:12.770Z,9.83
2023-04-26T02:01:41.896Z,9.77
2023-04-26T02:04:09.648Z,9.85
2023-04-26T02:06:37.295Z,9.91
2023-04-26T02:09:05.342Z,9.86
2023-04-26T02:11:32.512Z,9.81
2023-04-26T02:13:59.977Z,9.82
2023-04-26T02:16:27.365Z,9.75
2023-04-26T02:18:54.931Z,9.67
2023-04-26T02:21:22.513Z,9.64
2023-04-26T02:23:49.969Z,9.64
2023-04-26T02:26:17.112Z,9.64
2023-04-26T02:28:44.352Z,9.62
2023-04-26T02:31:11.549Z,9.63
2023-04-26T02:33:38.749Z,9.75
2023-04-26T02:36:06.525Z,9.75
2023-04-26T02:38:34.960Z,9.79
2023-04-26T02:41:03.110Z,9.72
2023-04-26T02:43:30.562Z,9.85
2023-04-26T02:45:57.965Z,9.91
2023-04-26T02:48:25.163Z,9.84
2023-04-26T02:50:52.350Z,9.91
2023-04-26T02:53:19.622Z,9.66
2023-04-26T02:55:46.860Z,9.82
2023-04-26T02:58:14.146Z,9.69
2023-04-26T03:00:48.753Z,9.76
2023-04-26T03:03:16.177Z,9.72
2023-04-26T03:05:43.453Z,9.48
2023-04-26T03:08:10.631Z,9.40
2023-04-26T03:10:38.692Z,9.42
2023-04-26T03:13:06.286Z,9.44
2023-04-26T03:15:33.609Z,9.47
2023-04-26T03:18:00.857Z,9.43
2023-04-26T03:20:28.354Z,9.51
2023-04-26T03:22:55.466Z,9.52
2023-04-26T03:25:22.758Z,9.50
2023-04-26T03:27:50.570Z,9.41
2023-04-26T03:30:18.042Z,9.46
2023-04-26T03:32:45.212Z,9.48
2023-04-26T03:35:12.400Z,12.03
2023-04-26T03:37:39.467Z,13.63
2023-04-26T03:40:08.409Z,13.70
2023-04-26T03:42:36.891Z,13.54
2023-04-26T03:45:05.225Z,13.66
2023-04-26T03:47:45.107Z,13.55
2023-04-26T03:50:12.671Z,13.63
2023-04-26T03:52:40.604Z,13.62
2023-04-26T03:55:08.958Z,13.31
2023-04-26T03:57:37.016Z,13.17
2023-04-26T04:00:05.870Z,12.93
2023-04-26T04:02:34.085Z,12.99
2023-04-26T04:05:02.160Z,13.73
2023-04-26T04:07:30.424Z,13.90
2023-04-26T04:09:59.357Z,13.98
2023-04-26T04:12:27.265Z,13.85
2023-04-26T04:14:55.415Z,11.99
2023-04-26T04:17:23.400Z,11.27
2023-04-26T04:19:51.582Z,10.82
2023-04-26T04:22:18.786Z,10.47
2023-04-26T04:24:45.993Z,10.46
2023-04-26T04:27:14.070Z,10.39
2023-04-26T04:29:41.259Z,10.54
2023-04-26T04:32:08.482Z,10.29
2023-04-26T04:34:35.858Z,10.20
2023-04-26T04:37:03.020Z,10.24
2023-04-26T04:39:30.370Z,10.23
2023-04-26T04:41:58.313Z,10.29
2023-04-26T04:44:25.683Z,10.28
2023-04-26T04:46:53.204Z,10.26
2023-04-26T04:49:20.656Z,10.24
2023-04-26T04:51:48.189Z,10.32
2023-04-26T04:54:17.285Z,10.26
2023-04-26T04:56:45.177Z,10.20
2023-04-26T04:59:12.493Z,10.29
2023-04-26T05:01:39.704Z,10.29
2023-04-26T05:04:07.683Z,10.26
2023-04-26T05:06:35.616Z,10.40
2023-04-26T05:09:03.487Z,10.40
2023-04-26T05:11:32.369Z,10.48
2023-04-26T05:14:00.118Z,10.64
2023-04-26T05:16:28.370Z,10.52
2023-04-26T05:18:57.224Z,10.59
2023-04-26T05:21:25.398Z,10.81
2023-04-26T05:23:53.534Z,10.96
2023-04-26T05:26:22.253Z,10.92
2023-04-26T05:28:50.096Z,10.96
2023-04-26T05:31:17.955Z,10.93
2023-04-26T05:33:45.277Z,11.17
2023-04-26T05:36:12.657Z,11.20
2023-04-26T05:38:40.086Z,11.32
2023-04-26T05:41:07.484Z,11.34
2023-04-26T05:43:35.432Z,11.58
2023-04-26T05:46:02.861Z,11.51
2023-04-26T05:48:30.247Z,11.60
2023-04-26T05:50:57.548Z,11.59
2023-04-26T05:53:24.815Z,11.51
2023-04-26T05:55:52.145Z,11.79
2023-04-26T05:58:19.864Z,11.98
2023-04-26T06:00:47.376Z,12.17
2023-04-26T06:03:15.048Z,12.77
2023-04-26T06:05:42.623Z,12.81
2023-04-26T06:08:10.040Z,13.27
2023-04-26T06:10:37.442Z,13.38
2023-04-26T06:13:04.795Z,13.04
2023-04-26T06:15:32.151Z,13.43
2023-04-26T06:17:59.675Z,13.68
2023-04-26T06:20:27.172Z,14.00
2023-04-26T06:22:55.918Z,14.32
2023-04-26T06:25:23.337Z,14.52
2023-04-26T06:27:51.066Z,14.51
2023-04-26T06:30:18.457Z,14.65
2023-04-26T06:32:45.852Z,15.07
2023-04-26T06:35:13.211Z,14.97
2023-04-26T06:37:40.437Z,15.20
2023-04-26T06:40:08.605Z,15.49
2023-04-26T06:42:36.924Z,15.61
2023-04-26T06:45:05.620Z,15.81
2023-04-26T06:47:32.979Z,16.09
2023-04-26T06:50:01.027Z,16.21
2023-04-26T06:52:28.346Z,16.30
2023-04-26T06:54:57.322Z,16.27
2023-04-26T06:57:25.120Z,16.76
2023-04-26T06:59:52.430Z,16.87
2023-04-26T07:02:19.969Z,17.36
2023-04-26T07:04:47.630Z,17.65
2023-04-26T07:07:15.610Z,17.31
2023-04-26T07:09:44.571Z,17.59
2023-04-26T07:12:12.712Z,17.47
2023-04-26T07:14:40.478Z,17.93
2023-04-26T07:17:07.739Z,17.81
2023-04-26T07:19:35.142Z,17.72
2023-04-26T07:22:03.368Z,18.10
2023-04-26T07:24:30.683Z,18.41
2023-04-26T07:26:58.236Z,18.23
2023-04-26T07:29:25.626Z,18.36
2023-04-26T07:31:53.624Z,18.50
2023-04-26T07:34:21.574Z,18.68
2023-04-26T07:36:48.815Z,19.00
2023-04-26T07:39:16.391Z,19.05
2023-04-26T07:41:44.248Z,19.27
2023-04-26T07:44:11.604Z,19.34
2023-04-26T07:46:38.989Z,19.04
2023-04-26T07:49:06.383Z,19.17
2023-04-26T07:51:35.560Z,19.03
2023-04-26T07:54:02.905Z,18.41
2023-04-26T07:56:30.214Z,17.95
2023-04-26T07:58:57.642Z,17.98
2023-04-26T08:01:25.730Z,18.38
2023-04-26T08:03:53.734Z,18.88
2023-04-26T08:06:21.486Z,19.23
2023-04-26T08:08:48.835Z,19.31
2023-04-26T08:11:17.061Z,18.86
2023-04-26T08:13:44.356Z,18.04
2023-04-26T08:16:11.643Z,18.01
2023-04-26T08:18:38.961Z,18.47
2023-04-26T08:21:06.393Z,18.27
2023-04-26T08:23:35.166Z,18.42
2023-04-26T08:26:02.521Z,18.18
2023-04-26T08:28:30.033Z,18.11
2023-04-26T08:30:58.618Z,18.22
2023-04-26T08:33:26.213Z,18.53
2023-04-26T08:35:53.610Z,18.24
2023-04-26T08:38:20.899Z,18.90
2023-04-26T08:40:48.504Z,19.04
2023-04-26T08:43:16.149Z,18.81
2023-04-26T08:45:46.138Z,18.51
2023-04-26T08:48:13.719Z,18.37
2023-04-26T08:50:43.695Z,18.36
2023-04-26T08:53:14.678Z,18.20
2023-04-26T08:55:47.165Z,18.12
2023-04-26T08:58:15.417Z,18.27
2023-04-26T09:00:44.986Z,19.06
2023-04-26T09:03:12.487Z,19.42
2023-04-26T09:05:41.211Z,19.44
2023-04-26T09:08:09.004Z,19.73
2023-04-26T09:10:36.356Z,19.81
2023-04-26T09:13:03.655Z,20.14
2023-04-26T09:15:31.127Z,19.90
2023-04-26T09:18:16.474Z,20.41
2023-04-26T09:20:45.594Z,20.21
2023-04-26T09:23:13.492Z,20.06
2023-04-26T09:25:41.036Z,19.87
2023-04-26T09:28:23.097Z,20.34
2023-04-26T09:30:50.725Z,20.63
2023-04-26T09:33:18.132Z,20.76
2023-04-26T09:35:45.461Z,20.91
2023-04-26T09:38:19.211Z,20.73
2023-04-26T09:40:51.017Z,20.60
2023-04-26T09:43:20.435Z,21.03
2023-04-26T09:45:53.600Z,21.35
2023-04-26T09:48:32.025Z,21.36
2023-04-26T09:51:03.186Z,21.48
2023-04-26T09:53:33.308Z,20.89
2023-04-26T09:56:08.239Z,20.58
2023-04-26T09:58:54.953Z,20.83
2023-04-26T10:01:22.515Z,20.71
2023-04-26T10:03:50.423Z,20.64
2023-04-26T10:06:18.161Z,20.62
2023-04-26T10:08:45.737Z,20.24
2023-04-26T10:11:14.034Z,20.39
2023-04-26T10:13:42.469Z,20.56
2023-04-26T10:16:10.607Z,20.52
2023-04-26T10:18:38.301Z,20.44
2023-04-26T10:21:17.872Z,20.70
2023-04-26T10:23:45.808Z,20.37
2023-04-26T10:26:47.198Z,20.30
2023-04-26T10:29:14.604Z,20.38
2023-04-26T10:32:03.534Z,20.49
2023-04-26T10:34:32.564Z,20.49
2023-04-26T10:37:07.736Z,20.48
2023-04-26T10:39:35.513Z,19.77
2023-04-26T10:42:23.968Z,20.21
2023-04-26T10:44:56.528Z,20.09
2023-04-26T10:47:24.744Z,19.79
2023-04-26T10:49:52.420Z,19.04
2023-04-26T10:52:23.005Z,19.18
2023-04-26T10:54:55.033Z,19.07
2023-04-26T10:57:54.533Z,18.71
2023-04-26T11:00:33.205Z,18.75
2023-04-26T11:03:05.699Z,18.73
2023-04-26T11:05:51.456Z,18.66
2023-04-26T11:08:19.730Z,18.62
2023-04-26T11:10:57.124Z,18.60
2023-04-26T11:13:36.194Z,18.73
2023-04-26T11:16:05.636Z,19.02
2023-04-26T11:18:39.544Z,19.08
2023-04-26T11:21:10.688Z,19.21
2023-04-26T11:23:37.915Z,19.05
2023-04-26T11:26:11.952Z,19.35
2023-04-26T11:28:49.090Z,19.66
2023-04-26T11:31:18.874Z,19.80
2023-04-26T11:33:50.767Z,19.11
2023-04-26T11:36:18.979Z,19.29
2023-04-26T11:38:47.077Z,19.63
2023-04-26T11:41:18.276Z,19.19
2023-04-26T11:43:45.717Z,19.03
2023-04-26T11:46:13.107Z,19.64
2023-04-26T11:48:41.109Z,19.77
2023-04-26T11:51:15.289Z,19.42
2023-04-26T11:53:53.503Z,19.73
2023-04-26T11:56:22.044Z,19.78
2023-04-26T11:58:55.968Z,20.23
2023-04-26T12:01:26.208Z,20.17
2023-04-26T12:04:00.064Z,20.24
2023-04-26T12:06:32.447Z,20.30
2023-04-26T12:09:06.076Z,19.81
2023-04-26T12:11:35.758Z,19.97
2023-04-26T12:14:06.911Z,20.18
2023-04-26T12:16:37.008Z,19.63
2023-04-26T12:19:10.236Z,19.43
2023-04-26T12:21:43.929Z,19.53
2023-04-26T12:24:23.164Z,19.17
2023-04-26T12:26:56.406Z,19.03
2023-04-26T12:29:26.673Z,19.46
2023-04-26T12:31:57.071Z,19.49
2023-04-26T12:34:28.765Z,19.65
2023-04-26T12:36:59.520Z,19.61
2023-04-26T12:39:26.806Z,19.81
2023-04-26T12:42:00.511Z,19.86
2023-04-26T12:44:30.969Z,19.99
2023-04-26T12:46:58.525Z,20.29
2023-04-26T12:49:25.974Z,20.10
2023-04-26T12:51:53.304Z,19.58
2023-04-26T12:54:20.686Z,20.15
2023-04-26T12:56:51.463Z,20.33
2023-04-26T12:59:18.736Z,20.53
2023-04-26T13:01:49.630Z,20.32
2023-04-26T13:04:18.027Z,20.66
2023-04-26T13:06:49.252Z,20.41
2023-04-26T13:09:22.588Z,20.28
2023-04-26T13:11:57.345Z,19.97
2023-04-26T13:14:25.343Z,19.78
2023-04-26T13:16:55.488Z,19.84
2023-04-26T13:19:25.315Z,19.50
2023-04-26T13:21:53.291Z,19.53
2023-04-26T13:24:20.684Z,19.61
2023-04-26T13:26:51.416Z,19.86
2023-04-26T13:29:18.718Z,19.86
2023-04-26T13:31:49.932Z,19.88
2023-04-26T13:34:20.514Z,20.00
2023-04-26T13:36:48.317Z,20.14
2023-04-26T13:39:15.706Z,20.02
2023-04-26T13:41:43.467Z,19.84
2023-04-26T13:44:10.999Z,19.99
2023-04-26T13:46:42.020Z,19.97
2023-04-26T13:49:13.073Z,19.87
2023-04-26T13:51:40.939Z,19.93
2023-04-26T13:54:11.387Z,19.57
2023-04-26T13:56:48.061Z,20.06
2023-04-26T13:59:15.324Z,20.33
2023-04-26T14:01:42.846Z,20.41
2023-04-26T14:04:10.512Z,20.03
2023-04-26T14:06:38.071Z,19.70
2023-04-26T14:09:05.432Z,19.73
2023-04-26T14:11:35.493Z,19.75
2023-04-26T14:14:06.315Z,19.70
2023-04-26T14:16:33.740Z,19.72
2023-04-26T14:19:02.040Z,19.18
2023-04-26T14:21:32.708Z,19.19
2023-04-26T14:24:00.591Z,19.45
2023-04-26T14:26:27.959Z,19.47
2023-04-26T14:28:55.306Z,19.53
2023-04-26T14:31:22.693Z,19.77
2023-04-26T14:33:50.209Z,19.86
2023-04-26T14:36:17.963Z,19.57
2023-04-26T14:38:45.558Z,19.98
2023-04-26T14:41:17.079Z,19.88
2023-04-26T14:43:47.826Z,19.77
2023-04-26T14:46:15.262Z,19.98
2023-04-26T14:48:43.051Z,19.62
2023-04-26T14:51:10.413Z,19.76
2023-04-26T14:53:39.318Z,19.47
2023-04-26T14:56:06.875Z,19.47
2023-04-26T14:58:34.220Z,19.26
2023-04-26T15:01:01.539Z,19.28
2023-04-26T15:03:29.223Z,19.30
2023-04-26T15:05:56.814Z,19.30
2023-04-26T15:08:24.374Z,19.17
2023-04-26T15:10:51.690Z,19.40
2023-04-26T15:13:19.179Z,19.50
2023-04-26T15:15:47.193Z,19.50
2023-04-26T15:18:14.664Z,19.32
2023-04-26T15:20:42.304Z,19.31
2023-04-26T15:23:10.753Z,19.09
2023-04-26T15:25:38.110Z,19.18
2023-04-26T15:28:05.415Z,19.34
2023-04-26T15:30:32.708Z,19.24
2023-04-26T15:33:00.269Z,19.13
2023-04-26T15:35:28.363Z,19.01
2023-04-26T15:37:55.656Z,19.15
2023-04-26T15:40:23.356Z,19.08
2023-04-26T15:42:51.682Z,19.01
2023-04-26T15:45:20.016Z,19.17
2023-04-26T15:47:47.463Z,19.03
2023-04-26T15:50:14.976Z,18.97
2023-04-26T15:52:42.329Z,18.86
2023-04-26T15:55:10.441Z,18.63
2023-04-26T15:57:40.966Z,18.76
2023-04-26T16:00:09.231Z,18.74
2023-04-26T16:02:36.745Z,18.72
2023-04-26T16:05:05.318Z,18.64
2023-04-26T16:07:32.827Z,18.17
2023-04-26T16:10:00.076Z,17.92
2023-04-26T16:12:27.326Z,17.68
2023-04-26T16:14:54.814Z,17.70
2023-04-26T16:17:22.099Z,17.64
2023-04-26T16:19:49.954Z,17.55
2023-04-26T16:22:17.252Z,17.43
2023-04-26T16:24:44.612Z,17.57
2023-04-26T16:27:12.046Z,17.41
2023-04-26T16:29:58.967Z,17.54
2023-04-26T16:32:44.263Z,17.55
2023-04-26T16:35:11.712Z,17.48
2023-04-26T16:37:39.219Z,17.38
2023-04-26T16:40:07.619Z,17.40
2023-04-26T16:42:35.011Z,17.55
2023-04-26T16:45:02.374Z,17.39
2023-04-26T16:47:29.794Z,17.26
2023-04-26T16:49:57.274Z,17.30
2023-04-26T16:52:24.934Z,17.48
2023-04-26T16:54:52.250Z,17.34
2023-04-26T16:57:19.714Z,17.20
2023-04-26T16:59:47.082Z,17.14
2023-04-26T17:02:14.506Z,17.15
2023-04-26T17:04:42.355Z,17.01
2023-04-26T17:07:09.960Z,17.08
2023-04-26T17:09:38.475Z,17.81
2023-04-26T17:12:06.269Z,18.55
2023-04-26T17:14:33.848Z,18.13
2023-04-26T17:17:01.293Z,18.11
2023-04-26T17:19:29.195Z,18.56
2023-04-26T17:21:57.125Z,19.18
2023-04-26T17:24:24.590Z,19.16
2023-04-26T17:26:52.696Z,19.05
2023-04-26T17:29:21.086Z,17.79
2023-04-26T17:31:48.484Z,17.11
2023-04-26T17:34:15.754Z,16.70
2023-04-26T17:36:43.078Z,16.39
2023-04-26T17:39:10.350Z,16.37
2023-04-26T17:41:38.224Z,16.19
2023-04-26T17:44:05.628Z,15.90
2023-04-26T17:46:33.297Z,15.71
2023-04-26T17:49:01.064Z,15.52
2023-04-26T17:51:28.405Z,15.49
2023-04-26T17:53:55.868Z,15.36
2023-04-26T17:56:23.856Z,15.28
2023-04-26T17:58:51.434Z,15.15
2023-04-26T18:01:18.909Z,14.97
2023-04-26T18:03:46.411Z,15.05
2023-04-26T18:06:13.780Z,15.05
2023-04-26T18:08:41.425Z,15.03
2023-04-26T18:11:08.705Z,15.02
2023-04-26T18:13:36.001Z,15.06
2023-04-26T18:16:03.318Z,14.96
2023-04-26T18:18:30.697Z,14.93
2023-04-26T18:20:58.530Z,14.88
2023-04-26T18:23:25.995Z,14.77
2023-04-26T18:25:53.246Z,14.78
2023-04-26T18:28:20.489Z,14.76
2023-04-26T18:30:47.885Z,14.62
2023-04-26T18:33:15.458Z,14.62
2023-04-26T18:35:42.846Z,14.55
2023-04-26T18:38:10.225Z,14.58
2023-04-26T18:40:37.646Z,14.63
2023-04-26T18:43:04.944Z,14.67
2023-04-26T18:45:32.868Z,14.74
2023-04-26T18:48:00.649Z,14.61
2023-04-26T18:50:28.176Z,14.57
2023-04-26T18:52:56.034Z,14.59
2023-04-26T18:55:27.080Z,14.55
2023-04-26T18:57:54.649Z,14.45
2023-04-26T19:00:22.173Z,14.30
2023-04-26T19:02:52.386Z,14.26
2023-04-26T19:05:20.253Z,14.13
2023-04-26T19:07:47.477Z,14.08
2023-04-26T19:10:14.929Z,14.18
2023-04-26T19:12:42.274Z,14.17
2023-04-26T19:15:10.166Z,14.18
2023-04-26T19:17:37.866Z,14.09
2023-04-26T19:20:07.375Z,14.20
2023-04-26T19:22:36.513Z,14.04
2023-04-26T19:25:04.322Z,14.10
2023-04-26T19:27:35.272Z,14.15
2023-04-26T19:30:02.614Z,14.16
2023-04-26T19:32:32.755Z,14.21
2023-04-26T19:35:02.205Z,14.02
2023-04-26T19:37:30.106Z,13.92
2023-04-26T19:39:57.857Z,13.80
2023-04-26T19:42:27.486Z,13.87
2023-04-26T19:44:54.964Z,13.85
2023-04-26T19:47:23.328Z,13.73
2023-04-26T19:49:55.832Z,13.71
2023-04-26T19:52:23.142Z,13.51
2023-04-26T19:54:55.562Z,13.67
2023-04-26T19:57:22.971Z,13.65
2023-04-26T19:59:50.334Z,13.47
2023-04-26T20:02:17.725Z,13.60
2023-04-26T20:04:50.351Z,13.54
2023-04-26T20:07:20.863Z,13.50
2023-04-26T20:09:50.778Z,13.45
2023-04-26T20:12:21.224Z,13.42
2023-04-26T20:14:48.681Z,13.39
2023-04-26T20:17:16.214Z,13.47
2023-04-26T20:19:43.640Z,13.49
2023-04-26T20:22:14.485Z,13.43
2023-04-26T20:24:41.779Z,13.39
2023-04-26T20:27:10.046Z,13.39
2023-04-26T20:29:37.364Z,13.45
2023-04-26T20:32:05.368Z,13.42
2023-04-26T20:34:32.739Z,13.35
2023-04-26T20:37:00.130Z,13.41
2023-04-26T20:39:27.456Z,13.19
2023-04-26T20:41:54.837Z,13.03
2023-04-26T20:44:22.194Z,13.16
2023-04-26T20:46:49.693Z,13.14
2023-04-26T20:49:17.132Z,13.03
2023-04-26T20:51:44.558Z,13.11
2023-04-26T20:54:11.979Z,13.12
2023-04-26T20:56:42.221Z,13.02
2023-04-26T20:59:10.060Z,13.00
2023-04-26T21:01:38.246Z,12.92
2023-04-26T21:04:06.216Z,12.83
2023-04-26T21:06:34.328Z,12.81
2023-04-26T21:09:01.628Z,12.79
2023-04-26T21:11:29.016Z,12.85
2023-04-26T21:13:56.253Z,12.82
2023-04-26T21:16:23.973Z,12.85
2023-04-26T21:18:51.544Z,12.84
2023-04-26T21:21:18.909Z,12.89
2023-04-26T21:23:46.230Z,12.82
2023-04-26T21:26:13.604Z,12.74
2023-04-26T21:28:41.049Z,12.74
2023-04-26T21:31:08.413Z,12.75
2023-04-26T21:33:35.868Z,12.67
2023-04-26T21:36:03.390Z,12.64
2023-04-26T21:38:30.740Z,12.62
2023-04-26T21:40:58.148Z,12.59
2023-04-26T21:43:25.531Z,12.61
2023-04-26T21:45:58.572Z,12.58
2023-04-26T21:48:26.718Z,12.47
2023-04-26T21:50:54.031Z,12.31
2023-04-26T21:53:21.483Z,12.12
2023-04-26T21:55:53.160Z,12.26
2023-04-26T21:58:20.728Z,12.22
2023-04-26T22:00:49.525Z,12.18
2023-04-26T22:03:17.684Z,12.20
2023-04-26T22:05:45.474Z,12.25
2023-04-26T22:08:12.752Z,12.16
2023-04-26T22:10:40.215Z,12.05
2023-04-26T22:13:11.184Z,12.13
2023-04-26T22:15:38.632Z,12.26
2023-04-26T22:18:07.363Z,12.20
2023-04-26T22:20:35.109Z,12.13
2023-04-26T22:23:02.439Z,12.10
2023-04-26T22:25:29.720Z,12.03
2023-04-26T22:27:57.114Z,12.10
2023-04-26T22:30:25.939Z,12.13
2023-04-26T22:32:55.776Z,12.19
2023-04-26T22:35:24.416Z,12.09
2023-04-26T22:37:52.323Z,12.02
2023-04-26T22:40:20.959Z,11.85
2023-04-26T22:42:48.355Z,11.79
2023-04-26T22:45:16.320Z,11.47
2023-04-26T22:47:43.710Z,11.47
2023-04-26T22:50:11.743Z,11.52
2023-04-26T22:52:39.135Z,11.49
2023-04-26T22:55:07.205Z,11.36
2023-04-26T22:57:34.963Z,11.34
2023-04-26T23:00:02.289Z,11.07
2023-04-26T23:02:29.826Z,10.94
2023-04-26T23:04:57.231Z,10.91
2023-04-26T23:07:25.244Z,10.95
2023-04-26T23:09:52.599Z,10.99
2023-04-26T23:12:20.232Z,10.92
2023-04-26T23:14:47.599Z,10.86
2023-04-26T23:17:15.038Z,11.02
2023-04-26T23:19:42.368Z,10.94
2023-04-26T23:22:09.712Z,10.76
2023-04-26T23:24:37.101Z,10.75
2023-04-26T23:27:04.453Z,10.66
2023-04-26T23:29:31.811Z,10.61
2023-04-26T23:31:59.110Z,10.59
2023-04-26T23:34:26.470Z,10.76
2023-04-26T23:36:53.762Z,10.67
2023-04-26T23:39:21.133Z,10.67
2023-04-26T23:41:48.658Z,10.65
2023-04-26T23:44:16.464Z,10.42
2023-04-26T23:46:44.107Z,10.32
2023-04-26T23:49:11.648Z,10.47
2023-04-26T23:51:39.359Z,10.43
2023-04-26T23:54:06.714Z,10.52
2023-04-26T23:56:34.058Z,10.45
2023-04-26T23:59:01.384Z,10.54
